sensor_id;sensor_type;location;lat;lon;timestamp;temperature;humidity
9824;DHT22;4951;50.778;7.196;2023-03-23T00:00:12;12.70;99.90
9824;DHT22;4951;50.778;7.196;2023-03-23T00:02:51;12.70;1.00
9824;DHT22;4951;50.778;7.196;2023-03-23T00:05:47;12.80;1.00
9824;DHT22;4951;50.778;7.196;2023-03-23T00:08:16;12.80;1.00
9824;DHT22;4951;50.778;7.196;2023-03-23T00:10:44;12.80;99.90
9824;DHT22;4951;50.778;7.196;2023-03-23T00:13:11;12.90;99.90
9824;DHT22;4951;50.778;7.196;2023-03-23T00:15:38;12.90;99.90
9824;DHT22;4951;50.778;7.196;2023-03-23T00:18:07;12.90;1.00
9824;DHT22;4951;50.778;7.196;2023-03-23T00:20:34;13.00;1.00
9824;DHT22;4951;50.778;7.196;2023-03-23T00:23:08;13.00;1.00
9824;DHT22;4951;50.778;7.196;2023-03-23T00:25:36;13.00;1.00
9824;DHT22;4951;50.778;7.196;2023-03-23T00:28:03;13.00;1.00
9824;DHT22;4951;50.778;7.196;2023-03-23T00:30:30;13.00;1.00
9824;DHT22;4951;50.778;7.196;2023-03-23T00:32:59;13.10;1.00
9824;DHT22;4951;50.778;7.196;2023-03-23T00:35:26;13.10;1.00
9824;DHT22;4951;50.778;7.196;2023-03-23T00:37:53;13.10;1.00
9824;DHT22;4951;50.778;7.196;2023-03-23T00:40:22;13.10;1.00
9824;DHT22;4951;50.778;7.196;2023-03-23T00:42:49;13.10;1.00
9824;DHT22;4951;50.778;7.196;2023-03-23T00:45:17;13.10;1.00
9824;DHT22;4951;50.778;7.196;2023-03-23T00:47:44;13.10;1.00
9824;DHT22;4951;50.778;7.196;2023-03-23T00:50:13;13.00;1.00
9824;DHT22;4951;50.778;7.196;2023-03-23T00:52:40;13.00;1.00
9824;DHT22;4951;50.778;7.196;2023-03-23T00:55:08;13.00;1.00
9824;DHT22;4951;50.778;7.196;2023-03-23T00:57:37;13.00;1.00
9824;DHT22;4951;50.778;7.196;2023-03-23T01:00:05;13.00;1.00
9824;DHT22;4951;50.778;7.196;2023-03-23T01:02:36;13.00;1.00
9824;DHT22;4951;50.778;7.196;2023-03-23T01:05:06;13.00;1.00
9824;DHT22;4951;50.778;7.196;2023-03-23T01:07:34;13.00;1.00
9824;DHT22;4951;50.778;7.196;2023-03-23T01:10:01;13.10;99.90
9824;DHT22;4951;50.778;7.196;2023-03-23T01:12:29;13.10;99.90
9824;DHT22;4951;50.778;7.196;2023-03-23T01:14:57;13.00;99.90
9824;DHT22;4951;50.778;7.196;2023-03-23T01:17:25;12.90;1.00
9824;DHT22;4951;50.778;7.196;2023-03-23T01:19:52;12.90;1.00
9824;DHT22;4951;50.778;7.196;2023-03-23T01:22:19;12.90;1.00
9824;DHT22;4951;50.778;7.196;2023-03-23T01:24:46;12.80;1.00
9824;DHT22;4951;50.778;7.196;2023-03-23T01:27:14;12.80;1.00
9824;DHT22;4951;50.778;7.196;2023-03-23T01:29:41;12.80;13.80
9824;DHT22;4951;50.778;7.196;2023-03-23T01:32:10;12.80;99.90
9824;DHT22;4951;50.778;7.196;2023-03-23T01:34:38;12.80;99.90
9824;DHT22;4951;50.778;7.196;2023-03-23T01:37:06;12.80;1.00
9824;DHT22;4951;50.778;7.196;2023-03-23T01:39:35;12.70;1.00
9824;DHT22;4951;50.778;7.196;2023-03-23T01:47:39;12.60;1.00
9824;DHT22;4951;50.778;7.196;2023-03-23T01:50:22;12.50;1.00
9824;DHT22;4951;50.778;7.196;2023-03-23T01:52:58;12.50;99.90
9824;DHT22;4951;50.778;7.196;2023-03-23T01:55:43;12.50;99.90
9824;DHT22;4951;50.778;7.196;2023-03-23T01:58:17;12.40;1.00
9824;DHT22;4951;50.778;7.196;2023-03-23T02:01:01;12.40;1.00
9824;DHT22;4951;50.778;7.196;2023-03-23T02:03:37;12.30;92.90
9824;DHT22;4951;50.778;7.196;2023-03-23T02:06:05;12.30;99.90
9824;DHT22;4951;50.778;7.196;2023-03-23T02:08:38;12.30;99.90
9824;DHT22;4951;50.778;7.196;2023-03-23T02:11:23;12.30;1.00
9824;DHT22;4951;50.778;7.196;2023-03-23T02:13:54;12.20;99.90
9824;DHT22;4951;50.778;7.196;2023-03-23T02:16:34;12.20;83.30
9824;DHT22;4951;50.778;7.196;2023-03-23T02:19:35;12.20;1.00
9824;DHT22;4951;50.778;7.196;2023-03-23T02:22:31;12.20;1.00
9824;DHT22;4951;50.778;7.196;2023-03-23T02:25:33;12.20;1.00
9824;DHT22;4951;50.778;7.196;2023-03-23T02:34:11;12.20;99.90
9824;DHT22;4951;50.778;7.196;2023-03-23T02:36:50;12.20;99.90
9824;DHT22;4951;50.778;7.196;2023-03-23T02:39:31;12.20;1.00
9824;DHT22;4951;50.778;7.196;2023-03-23T02:42:07;12.20;99.90
9824;DHT22;4951;50.778;7.196;2023-03-23T02:44:43;12.20;99.90
9824;DHT22;4951;50.778;7.196;2023-03-23T02:47:27;12.20;99.90
9824;DHT22;4951;50.778;7.196;2023-03-23T02:50:18;12.20;99.90
9824;DHT22;4951;50.778;7.196;2023-03-23T02:52:55;12.20;1.00
9824;DHT22;4951;50.778;7.196;2023-03-23T02:55:48;12.20;1.00
9824;DHT22;4951;50.778;7.196;2023-03-23T02:58:47;12.20;1.00
9824;DHT22;4951;50.778;7.196;2023-03-23T03:01:55;12.20;99.90
9824;DHT22;4951;50.778;7.196;2023-03-23T03:05:05;12.00;1.00
9824;DHT22;4951;50.778;7.196;2023-03-23T03:08:06;11.90;99.90
9824;DHT22;4951;50.778;7.196;2023-03-23T03:11:14;11.80;1.00
9824;DHT22;4951;50.778;7.196;2023-03-23T03:13:53;11.70;1.00
9824;DHT22;4951;50.778;7.196;2023-03-23T03:16:35;11.70;1.00
9824;DHT22;4951;50.778;7.196;2023-03-23T03:19:56;11.60;92.10
9824;DHT22;4951;50.778;7.196;2023-03-23T03:22:54;11.60;99.90
9824;DHT22;4951;50.778;7.196;2023-03-23T03:25:26;11.70;99.90
9824;DHT22;4951;50.778;7.196;2023-03-23T03:28:03;11.60;99.90
9824;DHT22;4951;50.778;7.196;2023-03-23T03:30:53;11.70;99.90
9824;DHT22;4951;50.778;7.196;2023-03-23T03:33:30;11.70;99.90
9824;DHT22;4951;50.778;7.196;2023-03-23T03:36:02;11.70;99.90
9824;DHT22;4951;50.778;7.196;2023-03-23T03:38:53;11.70;99.90
9824;DHT22;4951;50.778;7.196;2023-03-23T03:41:31;11.70;99.90
9824;DHT22;4951;50.778;7.196;2023-03-23T03:43:59;11.70;99.90
9824;DHT22;4951;50.778;7.196;2023-03-23T03:46:30;11.70;99.90
9824;DHT22;4951;50.778;7.196;2023-03-23T03:49:39;11.70;99.90
9824;DHT22;4951;50.778;7.196;2023-03-23T03:52:14;11.80;99.90
9824;DHT22;4951;50.778;7.196;2023-03-23T03:54:52;11.80;99.90
9824;DHT22;4951;50.778;7.196;2023-03-23T03:57:19;11.80;99.90
9824;DHT22;4951;50.778;7.196;2023-03-23T04:00:18;11.80;99.90
9824;DHT22;4951;50.778;7.196;2023-03-23T04:02:48;11.80;99.90
9824;DHT22;4951;50.778;7.196;2023-03-23T04:05:58;11.80;99.90
9824;DHT22;4951;50.778;7.196;2023-03-23T04:08:28;11.80;99.90
9824;DHT22;4951;50.778;7.196;2023-03-23T04:11:01;11.80;99.90
9824;DHT22;4951;50.778;7.196;2023-03-23T04:13:30;11.80;99.90
9824;DHT22;4951;50.778;7.196;2023-03-23T04:16:12;11.80;99.90
9824;DHT22;4951;50.778;7.196;2023-03-23T04:18:50;11.90;99.90
9824;DHT22;4951;50.778;7.196;2023-03-23T04:21:34;11.90;99.90
9824;DHT22;4951;50.778;7.196;2023-03-23T04:24:24;11.90;99.90
9824;DHT22;4951;50.778;7.196;2023-03-23T04:27:00;11.90;99.50
9824;DHT22;4951;50.778;7.196;2023-03-23T04:29:33;11.90;99.90
9824;DHT22;4951;50.778;7.196;2023-03-23T04:32:34;11.80;99.90
9824;DHT22;4951;50.778;7.196;2023-03-23T04:35:02;11.80;99.90
9824;DHT22;4951;50.778;7.196;2023-03-23T04:37:46;11.70;99.90
9824;DHT22;4951;50.778;7.196;2023-03-23T04:40:18;11.70;99.90
9824;DHT22;4951;50.778;7.196;2023-03-23T04:43:06;11.70;99.90
9824;DHT22;4951;50.778;7.196;2023-03-23T04:45:56;11.70;99.90
9824;DHT22;4951;50.778;7.196;2023-03-23T04:48:33;11.70;99.90
9824;DHT22;4951;50.778;7.196;2023-03-23T04:51:23;11.70;99.90
9824;DHT22;4951;50.778;7.196;2023-03-23T04:53:56;11.70;99.90
9824;DHT22;4951;50.778;7.196;2023-03-23T04:56:41;11.70;99.90
9824;DHT22;4951;50.778;7.196;2023-03-23T04:59:16;11.70;1.00
9824;DHT22;4951;50.778;7.196;2023-03-23T05:01:57;11.70;1.00
9824;DHT22;4951;50.778;7.196;2023-03-23T05:04:45;11.70;1.00
9824;DHT22;4951;50.778;7.196;2023-03-23T05:07:33;11.70;1.00
9824;DHT22;4951;50.778;7.196;2023-03-23T05:10:01;11.70;1.00
9824;DHT22;4951;50.778;7.196;2023-03-23T05:12:35;11.70;1.00
9824;DHT22;4951;50.778;7.196;2023-03-23T05:15:21;11.60;1.00
9824;DHT22;4951;50.778;7.196;2023-03-23T05:17:58;11.60;1.00
9824;DHT22;4951;50.778;7.196;2023-03-23T05:20:34;11.60;1.00
9824;DHT22;4951;50.778;7.196;2023-03-23T05:23:09;11.50;1.00
9824;DHT22;4951;50.778;7.196;2023-03-23T05:25:59;11.50;1.00
9824;DHT22;4951;50.778;7.196;2023-03-23T05:28:33;11.60;1.00
9824;DHT22;4951;50.778;7.196;2023-03-23T05:31:09;11.60;1.00
9824;DHT22;4951;50.778;7.196;2023-03-23T05:33:37;11.60;1.00
9824;DHT22;4951;50.778;7.196;2023-03-23T05:36:43;11.60;1.00
9824;DHT22;4951;50.778;7.196;2023-03-23T05:39:39;11.60;1.00
9824;DHT22;4951;50.778;7.196;2023-03-23T05:42:41;11.50;1.00
9824;DHT22;4951;50.778;7.196;2023-03-23T05:45:18;11.50;1.00
9824;DHT22;4951;50.778;7.196;2023-03-23T05:48:17;11.50;1.00
9824;DHT22;4951;50.778;7.196;2023-03-23T05:50:49;11.60;1.00
9824;DHT22;4951;50.778;7.196;2023-03-23T05:53:27;11.70;1.00
9824;DHT22;4951;50.778;7.196;2023-03-23T05:55:58;11.70;1.00
9824;DHT22;4951;50.778;7.196;2023-03-23T05:58:48;11.70;1.00
9824;DHT22;4951;50.778;7.196;2023-03-23T06:01:29;11.70;1.00
9824;DHT22;4951;50.778;7.196;2023-03-23T06:04:25;11.80;1.00
9824;DHT22;4951;50.778;7.196;2023-03-23T06:07:11;11.80;99.90
9824;DHT22;4951;50.778;7.196;2023-03-23T06:10:05;11.90;99.90
9824;DHT22;4951;50.778;7.196;2023-03-23T06:12:54;11.90;99.90
9824;DHT22;4951;50.778;7.196;2023-03-23T06:15:46;11.90;1.00
9824;DHT22;4951;50.778;7.196;2023-03-23T06:19:06;11.90;1.00
9824;DHT22;4951;50.778;7.196;2023-03-23T06:21:43;12.00;99.90
9824;DHT22;4951;50.778;7.196;2023-03-23T06:25:09;12.00;99.90
9824;DHT22;4951;50.778;7.196;2023-03-23T06:27:54;12.00;99.90
9824;DHT22;4951;50.778;7.196;2023-03-23T06:30:25;12.10;99.90
9824;DHT22;4951;50.778;7.196;2023-03-23T06:33:25;12.10;99.90
9824;DHT22;4951;50.778;7.196;2023-03-23T06:36:37;12.10;99.90
9824;DHT22;4951;50.778;7.196;2023-03-23T06:39:37;12.20;99.90
9824;DHT22;4951;50.778;7.196;2023-03-23T06:42:44;12.20;1.00
9824;DHT22;4951;50.778;7.196;2023-03-23T06:49:21;12.30;1.00
9824;DHT22;4951;50.778;7.196;2023-03-23T06:52:17;12.40;1.00
9824;DHT22;4951;50.778;7.196;2023-03-23T06:55:00;12.40;99.90
9824;DHT22;4951;50.778;7.196;2023-03-23T06:57:32;12.50;99.90
9824;DHT22;4951;50.778;7.196;2023-03-23T07:00:17;12.50;99.90
9824;DHT22;4951;50.778;7.196;2023-03-23T07:02:46;12.50;99.90
9824;DHT22;4951;50.778;7.196;2023-03-23T07:05:13;12.60;1.00
9824;DHT22;4951;50.778;7.196;2023-03-23T07:07:51;12.60;1.00
9824;DHT22;4951;50.778;7.196;2023-03-23T07:10:28;12.60;1.00
9824;DHT22;4951;50.778;7.196;2023-03-23T07:12:56;12.60;1.00
9824;DHT22;4951;50.778;7.196;2023-03-23T07:15:41;12.70;1.00
9824;DHT22;4951;50.778;7.196;2023-03-23T07:18:11;12.70;1.00
9824;DHT22;4951;50.778;7.196;2023-03-23T07:20:46;12.70;1.00
9824;DHT22;4951;50.778;7.196;2023-03-23T07:23:17;12.80;1.00
9824;DHT22;4951;50.778;7.196;2023-03-23T07:25:56;12.80;99.90
9824;DHT22;4951;50.778;7.196;2023-03-23T07:28:34;12.90;7.10
9824;DHT22;4951;50.778;7.196;2023-03-23T07:31:21;12.90;1.00
9824;DHT22;4951;50.778;7.196;2023-03-23T07:33:57;13.00;1.00
9824;DHT22;4951;50.778;7.196;2023-03-23T07:36:55;13.00;99.90
9824;DHT22;4951;50.778;7.196;2023-03-23T07:39:26;13.10;99.90
9824;DHT22;4951;50.778;7.196;2023-03-23T07:41:57;13.10;99.90
9824;DHT22;4951;50.778;7.196;2023-03-23T07:45:27;13.10;1.00
9824;DHT22;4951;50.778;7.196;2023-03-23T07:47:56;13.20;1.00
9824;DHT22;4951;50.778;7.196;2023-03-23T07:50:24;13.20;1.00
9824;DHT22;4951;50.778;7.196;2023-03-23T07:52:57;13.20;99.90
9824;DHT22;4951;50.778;7.196;2023-03-23T07:55:34;13.30;1.00
9824;DHT22;4951;50.778;7.196;2023-03-23T07:58:32;13.40;1.00
9824;DHT22;4951;50.778;7.196;2023-03-23T08:01:01;13.50;1.00
9824;DHT22;4951;50.778;7.196;2023-03-23T08:03:33;13.50;1.00
9824;DHT22;4951;50.778;7.196;2023-03-23T08:06:26;13.60;99.90
9824;DHT22;4951;50.778;7.196;2023-03-23T08:09:23;13.60;20.30
9824;DHT22;4951;50.778;7.196;2023-03-23T08:12:14;13.70;1.00
9824;DHT22;4951;50.778;7.196;2023-03-23T08:15:12;13.70;1.00
9824;DHT22;4951;50.778;7.196;2023-03-23T08:18:09;13.80;1.00
9824;DHT22;4951;50.778;7.196;2023-03-23T08:20:58;13.90;1.00
9824;DHT22;4951;50.778;7.196;2023-03-23T08:23:55;14.00;1.00
9824;DHT22;4951;50.778;7.196;2023-03-23T08:27:01;14.00;1.00
9824;DHT22;4951;50.778;7.196;2023-03-23T08:30:20;14.00;99.90
9824;DHT22;4951;50.778;7.196;2023-03-23T08:33:20;14.00;99.90
9824;DHT22;4951;50.778;7.196;2023-03-23T08:36:23;14.00;99.90
9824;DHT22;4951;50.778;7.196;2023-03-23T08:39:18;14.10;99.90
9824;DHT22;4951;50.778;7.196;2023-03-23T08:42:07;14.10;1.00
9824;DHT22;4951;50.778;7.196;2023-03-23T08:45:00;14.10;1.00
9824;DHT22;4951;50.778;7.196;2023-03-23T08:47:57;14.10;1.00
9824;DHT22;4951;50.778;7.196;2023-03-23T08:50:44;14.10;1.00
9824;DHT22;4951;50.778;7.196;2023-03-23T08:53:41;14.20;1.00
9824;DHT22;4951;50.778;7.196;2023-03-23T08:56:48;14.20;1.00
9824;DHT22;4951;50.778;7.196;2023-03-23T08:59:57;14.30;1.00
9824;DHT22;4951;50.778;7.196;2023-03-23T09:02:59;14.40;1.00
9824;DHT22;4951;50.778;7.196;2023-03-23T09:05:52;14.40;1.00
9824;DHT22;4951;50.778;7.196;2023-03-23T09:08:27;14.50;1.00
9824;DHT22;4951;50.778;7.196;2023-03-23T09:11:04;14.50;99.90
9824;DHT22;4951;50.778;7.196;2023-03-23T09:13:42;14.50;99.90
9824;DHT22;4951;50.778;7.196;2023-03-23T09:16:35;14.60;99.90
9824;DHT22;4951;50.778;7.196;2023-03-23T09:27:25;14.70;99.90
9824;DHT22;4951;50.778;7.196;2023-03-23T09:30:27;14.60;99.90
9824;DHT22;4951;50.778;7.196;2023-03-23T09:33:09;14.60;99.90
9824;DHT22;4951;50.778;7.196;2023-03-23T09:35:37;14.60;99.90
9824;DHT22;4951;50.778;7.196;2023-03-23T09:38:19;14.50;99.90
9824;DHT22;4951;50.778;7.196;2023-03-23T09:41:24;14.50;99.90
9824;DHT22;4951;50.778;7.196;2023-03-23T09:58:51;14.60;1.00
9824;DHT22;4951;50.778;7.196;2023-03-23T10:01:50;14.50;1.00
9824;DHT22;4951;50.778;7.196;2023-03-23T10:05:03;14.40;13.10
9824;DHT22;4951;50.778;7.196;2023-03-23T10:07:47;14.40;99.90
9824;DHT22;4951;50.778;7.196;2023-03-23T10:10:58;14.40;99.90
9824;DHT22;4951;50.778;7.196;2023-03-23T10:14:13;14.40;99.90
9824;DHT22;4951;50.778;7.196;2023-03-23T10:17:26;14.60;99.90
9824;DHT22;4951;50.778;7.196;2023-03-23T10:20:42;14.70;99.90
9824;DHT22;4951;50.778;7.196;2023-03-23T10:23:51;14.90;99.90
9824;DHT22;4951;50.778;7.196;2023-03-23T10:37:44;15.10;99.90
9824;DHT22;4951;50.778;7.196;2023-03-23T10:41:00;15.10;99.90
9824;DHT22;4951;50.778;7.196;2023-03-23T10:47:19;14.90;99.90
9824;DHT22;4951;50.778;7.196;2023-03-23T10:50:38;14.80;99.90
9824;DHT22;4951;50.778;7.196;2023-03-23T10:54:27;14.70;99.90
9824;DHT22;4951;50.778;7.196;2023-03-23T11:00:48;14.70;99.90
9824;DHT22;4951;50.778;7.196;2023-03-23T11:08:01;15.10;1.00
9824;DHT22;4951;50.778;7.196;2023-03-23T11:14:46;15.20;1.00
9824;DHT22;4951;50.778;7.196;2023-03-23T11:24:03;14.90;1.00
9824;DHT22;4951;50.778;7.196;2023-03-23T11:30:36;15.10;1.00
9824;DHT22;4951;50.778;7.196;2023-03-23T11:33:13;15.10;1.00
9824;DHT22;4951;50.778;7.196;2023-03-23T11:36:01;15.20;1.00
9824;DHT22;4951;50.778;7.196;2023-03-23T11:38:30;15.30;1.00
9824;DHT22;4951;50.778;7.196;2023-03-23T11:41:19;15.50;1.00
9824;DHT22;4951;50.778;7.196;2023-03-23T11:44:09;15.90;1.00
9824;DHT22;4951;50.778;7.196;2023-03-23T11:47:13;16.20;99.90
9824;DHT22;4951;50.778;7.196;2023-03-23T11:50:03;16.50;99.90
9824;DHT22;4951;50.778;7.196;2023-03-23T11:52:42;16.70;47.20
9824;DHT22;4951;50.778;7.196;2023-03-23T11:55:20;16.90;1.00
9824;DHT22;4951;50.778;7.196;2023-03-23T11:58:43;16.90;1.00
9824;DHT22;4951;50.778;7.196;2023-03-23T12:01:48;16.90;1.00
9824;DHT22;4951;50.778;7.196;2023-03-23T12:05:29;16.80;1.00
9824;DHT22;4951;50.778;7.196;2023-03-23T12:08:34;16.70;99.90
9824;DHT22;4951;50.778;7.196;2023-03-23T12:11:36;16.50;99.90
9824;DHT22;4951;50.778;7.196;2023-03-23T12:14:23;16.40;1.00
9824;DHT22;4951;50.778;7.196;2023-03-23T12:24:02;16.70;99.90
9824;DHT22;4951;50.778;7.196;2023-03-23T12:27:39;16.60;99.90
9824;DHT22;4951;50.778;7.196;2023-03-23T12:35:07;16.60;99.90
9824;DHT22;4951;50.778;7.196;2023-03-23T12:56:47;16.10;99.90
9824;DHT22;4951;50.778;7.196;2023-03-23T12:59:35;15.90;99.90
9824;DHT22;4951;50.778;7.196;2023-03-23T13:02:30;15.90;99.90
9824;DHT22;4951;50.778;7.196;2023-03-23T13:05:27;15.70;99.90
9824;DHT22;4951;50.778;7.196;2023-03-23T13:26:24;15.50;1.00
9824;DHT22;4951;50.778;7.196;2023-03-23T13:29:29;15.60;1.00
9824;DHT22;4951;50.778;7.196;2023-03-23T13:39:50;15.80;99.90
9824;DHT22;4951;50.778;7.196;2023-03-23T13:42:56;15.90;99.90
9824;DHT22;4951;50.778;7.196;2023-03-23T13:48:45;15.90;99.90
9824;DHT22;4951;50.778;7.196;2023-03-23T13:56:15;16.00;99.90
9824;DHT22;4951;50.778;7.196;2023-03-23T14:00:47;16.00;99.90
9824;DHT22;4951;50.778;7.196;2023-03-23T14:03:24;16.10;99.90
9824;DHT22;4951;50.778;7.196;2023-03-23T14:06:17;16.00;99.90
9824;DHT22;4951;50.778;7.196;2023-03-23T14:25:00;16.20;99.90
9824;DHT22;4951;50.778;7.196;2023-03-23T14:27:36;16.10;99.90
9824;DHT22;4951;50.778;7.196;2023-03-23T14:33:05;16.10;99.90
9824;DHT22;4951;50.778;7.196;2023-03-23T14:36:02;16.00;99.90
9824;DHT22;4951;50.778;7.196;2023-03-23T14:43:40;15.90;99.90
9824;DHT22;4951;50.778;7.196;2023-03-23T14:47:36;15.90;99.90
9824;DHT22;4951;50.778;7.196;2023-03-23T14:55:54;15.80;99.90
9824;DHT22;4951;50.778;7.196;2023-03-23T14:59:10;15.70;1.00
9824;DHT22;4951;50.778;7.196;2023-03-23T15:02:39;15.70;1.00
9824;DHT22;4951;50.778;7.196;2023-03-23T15:08:56;15.60;1.00
9824;DHT22;4951;50.778;7.196;2023-03-23T15:13:05;15.70;1.00
9824;DHT22;4951;50.778;7.196;2023-03-23T15:19:37;16.20;1.00
9824;DHT22;4951;50.778;7.196;2023-03-23T15:22:25;16.40;1.00
9824;DHT22;4951;50.778;7.196;2023-03-23T15:25:10;16.60;99.90
9824;DHT22;4951;50.778;7.196;2023-03-23T15:27:53;16.90;99.90
9824;DHT22;4951;50.778;7.196;2023-03-23T15:30:55;17.20;99.90
9824;DHT22;4951;50.778;7.196;2023-03-23T15:33:56;17.40;99.90
9824;DHT22;4951;50.778;7.196;2023-03-23T15:36:51;17.40;99.90
9824;DHT22;4951;50.778;7.196;2023-03-23T15:39:23;17.20;99.90
9824;DHT22;4951;50.778;7.196;2023-03-23T15:42:28;17.10;99.90
9824;DHT22;4951;50.778;7.196;2023-03-23T15:45:54;16.90;99.90
9824;DHT22;4951;50.778;7.196;2023-03-23T15:48:49;16.80;99.90
9824;DHT22;4951;50.778;7.196;2023-03-23T15:51:47;16.60;99.90
9824;DHT22;4951;50.778;7.196;2023-03-23T15:57:35;16.50;99.90
9824;DHT22;4951;50.778;7.196;2023-03-23T16:00:38;16.60;99.90
9824;DHT22;4951;50.778;7.196;2023-03-23T16:03:15;16.60;99.90
9824;DHT22;4951;50.778;7.196;2023-03-23T16:05:45;16.60;99.90
9824;DHT22;4951;50.778;7.196;2023-03-23T16:08:20;16.50;99.90
9824;DHT22;4951;50.778;7.196;2023-03-23T16:10:51;16.50;99.90
9824;DHT22;4951;50.778;7.196;2023-03-23T16:13:19;16.40;99.90
9824;DHT22;4951;50.778;7.196;2023-03-23T16:15:53;16.40;99.90
9824;DHT22;4951;50.778;7.196;2023-03-23T16:18:46;16.30;99.90
9824;DHT22;4951;50.778;7.196;2023-03-23T16:21:15;16.20;99.90
9824;DHT22;4951;50.778;7.196;2023-03-23T16:27:11;16.10;99.90
9824;DHT22;4951;50.778;7.196;2023-03-23T16:30:42;16.10;99.90
9824;DHT22;4951;50.778;7.196;2023-03-23T16:33:31;16.00;99.90
9824;DHT22;4951;50.778;7.196;2023-03-23T16:36:01;15.90;99.90
9824;DHT22;4951;50.778;7.196;2023-03-23T16:38:30;15.90;99.90
9824;DHT22;4951;50.778;7.196;2023-03-23T16:41:33;15.70;99.90
9824;DHT22;4951;50.778;7.196;2023-03-23T16:44:51;15.60;99.90
9824;DHT22;4951;50.778;7.196;2023-03-23T16:47:46;15.50;99.90
9824;DHT22;4951;50.778;7.196;2023-03-23T16:50:59;15.40;99.90
9824;DHT22;4951;50.778;7.196;2023-03-23T16:53:45;15.40;99.90
9824;DHT22;4951;50.778;7.196;2023-03-23T16:56:47;15.40;99.90
9824;DHT22;4951;50.778;7.196;2023-03-23T16:59:27;15.30;99.90
9824;DHT22;4951;50.778;7.196;2023-03-23T17:01:58;15.20;99.90
9824;DHT22;4951;50.778;7.196;2023-03-23T17:04:43;15.20;99.90
9824;DHT22;4951;50.778;7.196;2023-03-23T17:07:42;15.10;99.90
9824;DHT22;4951;50.778;7.196;2023-03-23T17:10:15;15.00;99.90
9824;DHT22;4951;50.778;7.196;2023-03-23T17:12:52;15.00;99.90
9824;DHT22;4951;50.778;7.196;2023-03-23T17:15:41;14.90;99.90
9824;DHT22;4951;50.778;7.196;2023-03-23T17:31:58;14.40;99.90
9824;DHT22;4951;50.778;7.196;2023-03-23T17:34:35;14.40;99.90
9824;DHT22;4951;50.778;7.196;2023-03-23T17:37:14;14.30;99.90
9824;DHT22;4951;50.778;7.196;2023-03-23T17:40:15;14.20;99.90
9824;DHT22;4951;50.778;7.196;2023-03-23T17:42:46;14.20;1.00
9824;DHT22;4951;50.778;7.196;2023-03-23T17:46:31;14.20;1.00
9824;DHT22;4951;50.778;7.196;2023-03-23T17:52:33;14.10;1.00
9824;DHT22;4951;50.778;7.196;2023-03-23T17:55:16;14.10;1.00
9824;DHT22;4951;50.778;7.196;2023-03-23T18:01:54;14.10;1.00
9824;DHT22;4951;50.778;7.196;2023-03-23T18:05:08;14.10;1.00
9824;DHT22;4951;50.778;7.196;2023-03-23T18:11:52;14.00;1.00
9824;DHT22;4951;50.778;7.196;2023-03-23T18:16:13;14.00;1.00
9824;DHT22;4951;50.778;7.196;2023-03-23T18:18:12;14.00;1.00
9824;DHT22;4951;50.778;7.196;2023-03-23T18:20:56;14.00;1.00
9824;DHT22;4951;50.778;7.196;2023-03-23T18:26:33;14.00;1.00
9824;DHT22;4951;50.778;7.196;2023-03-23T18:29:40;14.00;1.00
9824;DHT22;4951;50.778;7.196;2023-03-23T18:32:35;14.00;1.00
9824;DHT22;4951;50.778;7.196;2023-03-23T18:35:18;14.00;1.00
9824;DHT22;4951;50.778;7.196;2023-03-23T18:38:36;14.00;30.30
9824;DHT22;4951;50.778;7.196;2023-03-23T18:41:13;14.00;74.60
9824;DHT22;4951;50.778;7.196;2023-03-23T18:44:05;14.10;99.50
9824;DHT22;4951;50.778;7.196;2023-03-23T18:46:35;14.10;99.90
9824;DHT22;4951;50.778;7.196;2023-03-23T18:49:27;14.00;99.90
9824;DHT22;4951;50.778;7.196;2023-03-23T18:52:27;14.00;99.90
9824;DHT22;4951;50.778;7.196;2023-03-23T18:55:35;14.00;99.90
9824;DHT22;4951;50.778;7.196;2023-03-23T18:58:09;14.00;99.90
9824;DHT22;4951;50.778;7.196;2023-03-23T19:01:09;14.00;99.90
9824;DHT22;4951;50.778;7.196;2023-03-23T19:03:38;14.00;99.90
9824;DHT22;4951;50.778;7.196;2023-03-23T19:06:08;14.10;99.90
9824;DHT22;4951;50.778;7.196;2023-03-23T19:08:44;14.10;99.90
9824;DHT22;4951;50.778;7.196;2023-03-23T19:11:14;14.10;99.90
9824;DHT22;4951;50.778;7.196;2023-03-23T19:13:57;14.10;99.90
9824;DHT22;4951;50.778;7.196;2023-03-23T19:16:35;14.10;99.90
9824;DHT22;4951;50.778;7.196;2023-03-23T19:19:09;14.10;1.00
9824;DHT22;4951;50.778;7.196;2023-03-23T19:21:38;14.10;1.00
9824;DHT22;4951;50.778;7.196;2023-03-23T19:24:14;14.10;1.00
9824;DHT22;4951;50.778;7.196;2023-03-23T19:26:48;14.10;1.00
9824;DHT22;4951;50.778;7.196;2023-03-23T19:29:31;14.00;1.00
9824;DHT22;4951;50.778;7.196;2023-03-23T19:32:01;14.00;1.00
9824;DHT22;4951;50.778;7.196;2023-03-23T19:34:39;14.00;1.00
9824;DHT22;4951;50.778;7.196;2023-03-23T19:37:06;14.00;1.00
9824;DHT22;4951;50.778;7.196;2023-03-23T19:39:54;13.90;1.00
9824;DHT22;4951;50.778;7.196;2023-03-23T19:42:38;13.90;1.00
9824;DHT22;4951;50.778;7.196;2023-03-23T19:45:26;13.90;1.00
9824;DHT22;4951;50.778;7.196;2023-03-23T19:48:05;13.90;1.00
9824;DHT22;4951;50.778;7.196;2023-03-23T19:50:48;13.90;1.00
9824;DHT22;4951;50.778;7.196;2023-03-23T19:53:44;13.90;9.50
9824;DHT22;4951;50.778;7.196;2023-03-23T19:56:23;13.90;52.50
9824;DHT22;4951;50.778;7.196;2023-03-23T19:58:55;13.90;98.40
9824;DHT22;4951;50.778;7.196;2023-03-23T20:01:23;13.80;99.90
9824;DHT22;4951;50.778;7.196;2023-03-23T20:03:50;13.80;99.90
9824;DHT22;4951;50.778;7.196;2023-03-23T20:06:22;13.80;99.90
9824;DHT22;4951;50.778;7.196;2023-03-23T20:09:03;13.80;99.90
9824;DHT22;4951;50.778;7.196;2023-03-23T20:14:34;13.80;99.90
9824;DHT22;4951;50.778;7.196;2023-03-23T20:17:28;13.70;99.90
9824;DHT22;4951;50.778;7.196;2023-03-23T20:20:01;13.70;99.90
9824;DHT22;4951;50.778;7.196;2023-03-23T20:22:34;13.70;1.00
9824;DHT22;4951;50.778;7.196;2023-03-23T20:25:04;13.80;1.00
9824;DHT22;4951;50.778;7.196;2023-03-23T20:27:35;13.80;1.00
9824;DHT22;4951;50.778;7.196;2023-03-23T20:30:12;13.70;1.00
9824;DHT22;4951;50.778;7.196;2023-03-23T20:32:43;13.70;1.00
9824;DHT22;4951;50.778;7.196;2023-03-23T20:35:16;13.70;1.00
9824;DHT22;4951;50.778;7.196;2023-03-23T20:38:07;13.60;1.00
9824;DHT22;4951;50.778;7.196;2023-03-23T20:40:34;13.60;1.00
9824;DHT22;4951;50.778;7.196;2023-03-23T20:43:03;13.60;1.00
9824;DHT22;4951;50.778;7.196;2023-03-23T20:45:35;13.50;1.00
9824;DHT22;4951;50.778;7.196;2023-03-23T20:48:44;13.50;39.70
9824;DHT22;4951;50.778;7.196;2023-03-23T20:51:43;13.50;99.90
9824;DHT22;4951;50.778;7.196;2023-03-23T20:54:20;13.50;99.90
9824;DHT22;4951;50.778;7.196;2023-03-23T20:56:56;13.50;99.90
9824;DHT22;4951;50.778;7.196;2023-03-23T21:00:11;13.50;99.90
9824;DHT22;4951;50.778;7.196;2023-03-23T21:02:58;13.50;1.00
9824;DHT22;4951;50.778;7.196;2023-03-23T21:05:40;13.50;1.00
9824;DHT22;4951;50.778;7.196;2023-03-23T21:08:38;13.50;1.00
9824;DHT22;4951;50.778;7.196;2023-03-23T21:11:26;13.60;1.00
9824;DHT22;4951;50.778;7.196;2023-03-23T21:14:33;13.60;1.00
9824;DHT22;4951;50.778;7.196;2023-03-23T21:16:59;13.60;1.00
9824;DHT22;4951;50.778;7.196;2023-03-23T21:19:48;13.60;1.00
9824;DHT22;4951;50.778;7.196;2023-03-23T21:22:58;13.60;1.00
9824;DHT22;4951;50.778;7.196;2023-03-23T21:25:46;13.60;37.40
9824;DHT22;4951;50.778;7.196;2023-03-23T21:28:37;13.60;14.40
9824;DHT22;4951;50.778;7.196;2023-03-23T21:31:43;13.60;99.90
9824;DHT22;4951;50.778;7.196;2023-03-23T21:34:19;13.60;99.90
9824;DHT22;4951;50.778;7.196;2023-03-23T21:36:57;13.60;99.90
9824;DHT22;4951;50.778;7.196;2023-03-23T21:39:27;13.70;1.00
9824;DHT22;4951;50.778;7.196;2023-03-23T21:42:13;13.70;1.00
9824;DHT22;4951;50.778;7.196;2023-03-23T21:45:21;13.70;1.00